createdAt,value
2023-03-28T00:01:49.040Z,76.91
2023-03-28T00:04:20.648Z,77.05
2023-03-28T00:06:53.467Z,77.25
2023-03-28T00:09:23.340Z,77.18
2023-03-28T00:11:53.594Z,77.06
2023-03-28T00:14:23.391Z,77.01
2023-03-28T00:16:53.400Z,77.01
2023-03-28T00:19:23.171Z,76.60
2023-03-28T00:21:54.761Z,76.78
2023-03-28T00:24:24.242Z,76.69
2023-03-28T00:26:58.423Z,76.81
2023-03-28T00:29:30.269Z,76.94
2023-03-28T00:32:00.897Z,77.17
2023-03-28T00:34:31.232Z,77.12
2023-03-28T00:37:02.404Z,77.24
2023-03-28T00:39:32.719Z,77.08
2023-03-28T00:42:03.407Z,77.08
2023-03-28T00:44:53.803Z,77.55
2023-03-28T00:47:30.747Z,77.34
2023-03-28T00:50:06.336Z,77.16
2023-03-28T00:52:45.120Z,77.72
2023-03-28T00:55:27.061Z,77.33
2023-03-28T00:57:57.651Z,77.28
2023-03-28T01:00:30.758Z,77.30
2023-03-28T01:03:02.654Z,77.37
2023-03-28T01:05:34.959Z,77.52
2023-03-28T01:08:15.317Z,77.54
2023-03-28T01:10:45.862Z,77.46
2023-03-28T01:13:19.087Z,77.19
2023-03-28T01:15:51.523Z,77.04
2023-03-28T01:18:23.426Z,77.31
2023-03-28T01:20:58.689Z,77.80
2023-03-28T01:23:33.760Z,77.41
2023-03-28T01:26:30.045Z,77.98
2023-03-28T01:29:34.092Z,77.54
2023-03-28T01:32:35.265Z,77.91
2023-03-28T01:35:30.598Z,77.83
2023-03-28T01:38:25.937Z,77.83
2023-03-28T01:41:15.242Z,78.23
2023-03-28T01:44:01.337Z,78.35
2023-03-28T01:46:40.197Z,78.82
2023-03-28T01:49:31.872Z,79.00
2023-03-28T01:52:10.534Z,78.83
2023-03-28T01:54:52.345Z,78.45
2023-03-28T01:57:33.931Z,78.64
2023-03-28T02:00:15.717Z,78.70
2023-03-28T02:03:06.612Z,78.74
2023-03-28T02:05:40.193Z,79.09
2023-03-28T02:08:14.306Z,78.83
2023-03-28T02:10:50.535Z,79.27
2023-03-28T02:13:51.694Z,78.42
2023-03-28T02:16:42.208Z,78.53
2023-03-28T02:19:33.275Z,78.52
2023-03-28T02:22:13.620Z,78.65
2023-03-28T02:24:54.318Z,78.58
2023-03-28T02:27:26.321Z,78.85
2023-03-28T02:30:01.275Z,78.85
2023-03-28T02:32:35.805Z,79.19
2023-03-28T02:35:09.127Z,78.78
2023-03-28T02:38:02.106Z,78.78
2023-03-28T02:40:41.746Z,78.78
2023-03-28T02:43:15.445Z,78.74
2023-03-28T02:46:09.327Z,79.00
2023-03-28T02:49:00.073Z,78.92
2023-03-28T02:51:41.518Z,79.22
2023-03-28T02:54:30.999Z,79.27
2023-03-28T02:57:27.186Z,78.91
2023-03-28T03:00:04.880Z,79.46
2023-03-28T03:02:34.793Z,78.67
2023-03-28T03:05:04.923Z,78.67
2023-03-28T03:07:34.785Z,79.18
2023-03-28T03:10:08.036Z,79.18
2023-03-28T03:12:38.523Z,79.63
2023-03-28T03:15:08.992Z,78.84
2023-03-28T03:17:47.084Z,79.40
2023-03-28T03:20:17.498Z,79.14
2023-03-28T03:22:47.327Z,79.31
2023-03-28T03:25:17.358Z,79.10
2023-03-28T03:27:48.876Z,79.14
2023-03-28T03:30:20.380Z,79.00
2023-03-28T03:32:51.946Z,79.49
2023-03-28T03:35:22.041Z,79.49
2023-03-28T03:37:51.957Z,79.20
2023-03-28T03:40:21.961Z,79.34
2023-03-28T03:42:52.404Z,78.94
2023-03-28T03:45:22.657Z,79.45
2023-03-28T03:47:52.645Z,78.92
2023-03-28T03:50:22.686Z,79.61
2023-03-28T03:52:52.589Z,79.48
2023-03-28T03:55:23.801Z,79.19
2023-03-28T03:57:53.926Z,79.14
2023-03-28T04:00:23.629Z,79.63
2023-03-28T04:02:54.022Z,79.54
2023-03-28T04:05:25.951Z,79.63
2023-03-28T04:08:08.083Z,79.82
2023-03-28T04:10:39.925Z,79.87
2023-03-28T04:13:09.819Z,79.17
2023-03-28T04:15:39.525Z,79.33
2023-03-28T04:18:19.132Z,79.82
2023-03-28T04:20:54.532Z,79.48
2023-03-28T04:23:44.002Z,79.34
2023-03-28T04:26:33.069Z,79.96
2023-03-28T04:29:05.778Z,79.85
2023-03-28T04:31:39.134Z,79.90
2023-03-28T04:34:31.536Z,80.19
2023-03-28T04:37:13.242Z,79.61
2023-03-28T04:39:46.868Z,80.00
2023-03-28T04:42:30.091Z,80.02
2023-03-28T04:45:08.705Z,79.90
2023-03-28T04:47:40.225Z,79.51
2023-03-28T04:50:13.052Z,79.84
2023-03-28T04:52:43.068Z,79.84
2023-03-28T04:55:12.920Z,79.30
2023-03-28T04:57:42.768Z,79.98
2023-03-28T05:00:15.369Z,79.49
2023-03-28T05:02:57.260Z,79.35
2023-03-28T05:05:28.264Z,80.41
2023-03-28T05:07:59.693Z,79.52
2023-03-28T05:10:29.196Z,79.94
2023-03-28T05:13:00.689Z,79.47
2023-03-28T05:15:31.420Z,79.27
2023-03-28T05:18:03.328Z,79.89
2023-03-28T05:20:35.982Z,79.31
2023-03-28T05:23:07.224Z,79.07
2023-03-28T05:25:38.800Z,79.01
2023-03-28T05:28:10.945Z,79.58
2023-03-28T05:30:42.442Z,80.31
2023-03-28T05:33:12.750Z,80.31
2023-03-28T05:35:43.080Z,79.73
2023-03-28T05:38:14.361Z,79.74
2023-03-28T05:40:44.475Z,80.13
2023-03-28T05:43:14.386Z,80.77
2023-03-28T05:45:44.497Z,80.43
2023-03-28T05:48:19.168Z,80.51
2023-03-28T05:50:51.076Z,80.36
2023-03-28T05:53:21.022Z,79.34
2023-03-28T05:55:51.751Z,80.24
2023-03-28T05:58:21.718Z,80.03
2023-03-28T06:00:52.374Z,80.05
2023-03-28T06:03:22.752Z,80.18
2023-03-28T06:05:52.959Z,81.13
2023-03-28T06:08:24.655Z,80.71
2023-03-28T06:10:54.871Z,80.43
2023-03-28T06:13:26.188Z,80.31
2023-03-28T06:15:56.218Z,79.85
2023-03-28T06:18:31.146Z,80.32
2023-03-28T06:21:01.434Z,79.97
2023-03-28T06:23:31.914Z,79.73
2023-03-28T06:26:03.225Z,79.68
2023-03-28T06:28:34.855Z,79.59
2023-03-28T06:31:20.776Z,79.92
2023-03-28T06:33:50.494Z,79.48
2023-03-28T06:36:22.076Z,79.58
2023-03-28T06:38:53.519Z,79.18
2023-03-28T06:41:25.201Z,79.34
2023-03-28T06:43:55.192Z,78.21
2023-03-28T06:46:43.111Z,78.89
2023-03-28T06:49:13.781Z,78.44
2023-03-28T06:52:01.665Z,78.10
2023-03-28T06:54:31.964Z,77.89
2023-03-28T06:57:01.911Z,77.87
2023-03-28T06:59:31.760Z,76.87
2023-03-28T07:02:03.429Z,76.87
2023-03-28T07:04:35.110Z,76.71
2023-03-28T07:07:05.299Z,76.26
2023-03-28T07:09:35.576Z,76.00
2023-03-28T07:12:08.828Z,74.50
2023-03-28T07:14:40.443Z,74.73
2023-03-28T07:17:10.869Z,75.05
2023-03-28T07:19:40.992Z,74.20
2023-03-28T07:22:12.347Z,74.79
2023-03-28T07:24:42.555Z,74.67
2023-03-28T07:27:16.496Z,74.47
2023-03-28T07:29:47.100Z,73.78
2023-03-28T07:32:17.285Z,75.04
2023-03-28T07:34:48.250Z,73.61
2023-03-28T07:37:22.741Z,74.01
2023-03-28T07:39:56.457Z,74.42
2023-03-28T07:42:28.270Z,71.68
2023-03-28T07:44:58.120Z,73.34
2023-03-28T07:47:30.626Z,72.44
2023-03-28T07:50:00.516Z,71.32
2023-03-28T07:52:31.901Z,70.98
2023-03-28T07:55:01.787Z,70.10
2023-03-28T07:57:32.831Z,71.67
2023-03-28T08:00:10.763Z,70.29
2023-03-28T08:02:44.961Z,71.12
2023-03-28T08:05:14.459Z,69.56
2023-03-28T08:07:46.203Z,68.10
2023-03-28T08:10:16.248Z,68.99
2023-03-28T08:12:46.741Z,68.72
2023-03-28T08:15:16.857Z,66.67
2023-03-28T08:17:47.184Z,67.34
2023-03-28T08:20:16.994Z,65.82
2023-03-28T08:23:04.881Z,64.70
2023-03-28T08:25:42.461Z,64.58
2023-03-28T08:28:13.089Z,64.47
2023-03-28T08:30:42.942Z,62.30
2023-03-28T08:33:12.959Z,64.36
2023-03-28T08:35:43.007Z,62.35
2023-03-28T08:38:14.640Z,61.92
2023-03-28T08:40:47.568Z,62.23
2023-03-28T08:43:44.609Z,61.96
2023-03-28T08:46:17.732Z,61.43
2023-03-28T08:48:49.740Z,60.84
2023-03-28T08:51:22.707Z,59.87
2023-03-28T08:54:22.671Z,60.88
2023-03-28T08:56:55.815Z,59.05
2023-03-28T08:59:34.320Z,58.78
2023-03-28T09:02:12.141Z,58.78
2023-03-28T09:04:42.288Z,59.07
2023-03-28T09:07:16.860Z,58.01
2023-03-28T09:10:04.432Z,56.67
2023-03-28T09:12:57.819Z,57.05
2023-03-28T09:15:36.322Z,56.33
2023-03-28T09:18:17.008Z,55.27
2023-03-28T09:20:55.682Z,56.35
2023-03-28T09:24:09.075Z,53.83
2023-03-28T09:26:48.835Z,53.32
2023-03-28T09:29:24.984Z,51.61
2023-03-28T09:32:01.006Z,51.91
2023-03-28T09:34:43.109Z,52.08
2023-03-28T09:37:19.006Z,52.16
2023-03-28T09:39:55.369Z,52.16
2023-03-28T09:42:29.665Z,50.29
2023-03-28T09:48:20.626Z,51.89
2023-03-28T09:50:52.411Z,51.01
2023-03-28T09:53:27.186Z,51.01
2023-03-28T09:56:04.341Z,51.96
2023-03-28T09:58:47.618Z,50.83
2023-03-28T10:01:36.019Z,49.64
2023-03-28T10:04:14.990Z,48.98
2023-03-28T10:07:13.453Z,48.42
2023-03-28T10:09:50.713Z,49.79
2023-03-28T10:12:28.863Z,48.78
2023-03-28T10:14:58.990Z,48.77
2023-03-28T10:17:45.988Z,48.34
2023-03-28T10:20:22.634Z,48.68
2023-03-28T10:22:56.958Z,48.59
2023-03-28T10:25:36.070Z,46.71
2023-03-28T10:28:10.939Z,46.71
2023-03-28T10:30:42.276Z,48.21
2023-03-28T10:33:21.920Z,46.87
2023-03-28T10:36:12.714Z,47.68
2023-03-28T10:38:50.296Z,48.14
2023-03-28T10:41:29.648Z,48.86
2023-03-28T10:44:19.111Z,47.53
2023-03-28T10:46:54.479Z,48.46
2023-03-28T10:49:28.491Z,46.76
2023-03-28T10:52:00.261Z,47.80
2023-03-28T10:54:46.189Z,48.02
2023-03-28T10:57:40.845Z,46.89
2023-03-28T11:00:23.121Z,48.44
2023-03-28T11:03:17.994Z,46.68
2023-03-28T11:06:07.931Z,45.18
2023-03-28T11:08:45.851Z,45.93
2023-03-28T11:11:44.108Z,45.77
2023-03-28T11:14:34.733Z,47.60
2023-03-28T11:17:22.831Z,47.22
2023-03-28T11:20:24.746Z,46.08
2023-03-28T11:23:29.157Z,46.01
2023-03-28T11:26:08.029Z,47.17
2023-03-28T11:28:59.197Z,45.51
2023-03-28T11:31:32.294Z,45.51
2023-03-28T11:34:11.410Z,45.21
2023-03-28T11:36:47.857Z,46.06
2023-03-28T11:39:27.645Z,45.77
2023-03-28T11:41:59.862Z,44.23
2023-03-28T11:44:40.081Z,44.41
2023-03-28T11:47:19.605Z,43.85
2023-03-28T11:50:08.934Z,44.06
2023-03-28T11:52:43.486Z,44.06
2023-03-28T11:55:21.693Z,44.22
2023-03-28T11:58:13.606Z,43.97
2023-03-28T12:00:49.133Z,44.16
2023-03-28T12:03:36.020Z,42.33
2023-03-28T12:06:15.104Z,42.38
2023-03-28T12:09:02.998Z,40.87
2023-03-28T12:11:49.249Z,40.78
2023-03-28T12:14:33.984Z,41.46
2023-03-28T12:17:09.749Z,41.75
2023-03-28T12:19:41.567Z,41.59
2023-03-28T12:22:29.444Z,40.27
2023-03-28T12:25:10.538Z,40.20
2023-03-28T12:27:50.963Z,40.74
2023-03-28T12:30:32.378Z,41.09
2023-03-28T12:33:08.858Z,40.80
2023-03-28T12:35:55.481Z,41.21
2023-03-28T12:38:37.188Z,39.77
2023-03-28T12:41:19.921Z,39.82
2023-03-28T12:43:56.009Z,37.75
2023-03-28T12:46:32.748Z,39.27
2023-03-28T12:49:08.183Z,38.84
2023-03-28T12:51:40.799Z,39.84
2023-03-28T12:54:20.488Z,39.86
2023-03-28T12:57:02.290Z,39.80
2023-03-28T13:02:59.337Z,39.45
2023-03-28T13:05:50.219Z,39.20
2023-03-28T13:08:56.072Z,37.73
2023-03-28T13:11:40.589Z,39.21
2023-03-28T13:14:27.390Z,39.68
2023-03-28T13:16:59.525Z,38.72
2023-03-28T13:19:52.869Z,39.00
2023-03-28T13:22:31.561Z,38.42
2023-03-28T13:25:28.112Z,39.68
2023-03-28T13:28:01.014Z,38.20
2023-03-28T13:30:34.080Z,38.71
2023-03-28T13:33:31.107Z,38.16
2023-03-28T13:36:04.161Z,38.16
2023-03-28T13:38:50.216Z,39.33
2023-03-28T13:41:46.155Z,39.72
2023-03-28T13:44:25.265Z,39.57
2023-03-28T13:46:55.576Z,39.40
2023-03-28T13:49:43.357Z,38.29
2023-03-28T13:52:22.089Z,38.97
2023-03-28T13:54:53.698Z,38.64
2023-03-28T13:57:28.258Z,39.03
2023-03-28T14:00:01.339Z,38.19
2023-03-28T14:02:44.717Z,38.42
2023-03-28T14:05:29.029Z,38.42
2023-03-28T14:08:16.843Z,37.69
2023-03-28T14:10:48.549Z,38.45
2023-03-28T14:13:31.453Z,36.98
2023-03-28T14:16:01.324Z,36.60
2023-03-28T14:18:34.217Z,35.88
2023-03-28T14:21:06.350Z,35.81
2023-03-28T14:23:42.175Z,36.37
2023-03-28T14:26:16.935Z,36.46
2023-03-28T14:28:47.577Z,37.86
2023-03-28T14:31:32.289Z,37.58
2023-03-28T14:34:05.157Z,38.17
2023-03-28T14:36:36.716Z,38.34
2023-03-28T14:39:14.031Z,37.59
2023-03-28T14:41:44.649Z,37.81
2023-03-28T14:44:14.657Z,37.81
2023-03-28T14:46:46.650Z,37.97
2023-03-28T14:49:19.311Z,37.78
2023-03-28T14:51:52.228Z,38.63
2023-03-28T14:57:05.363Z,37.63
2023-03-28T14:59:41.294Z,36.83
2023-03-28T15:02:14.122Z,36.83
2023-03-28T15:04:46.403Z,37.03
2023-03-28T15:07:31.520Z,37.67
2023-03-28T15:10:22.529Z,37.41
2023-03-28T15:13:04.098Z,37.43
2023-03-28T15:15:37.716Z,37.76
2023-03-28T15:18:13.137Z,37.45
2023-03-28T15:20:46.865Z,37.92
2023-03-28T15:23:29.206Z,38.68
2023-03-28T15:26:02.261Z,38.92
2023-03-28T15:28:32.944Z,38.06
2023-03-28T15:31:04.684Z,38.31
2023-03-28T15:33:35.829Z,38.38
2023-03-28T15:36:09.654Z,38.29
2023-03-28T15:38:41.249Z,40.04
2023-03-28T15:41:27.219Z,39.53
2023-03-28T15:44:02.300Z,40.22
2023-03-28T15:46:33.921Z,39.80
2023-03-28T15:49:05.973Z,39.85
2023-03-28T15:51:41.278Z,39.35
2023-03-28T15:54:24.070Z,39.96
2023-03-28T15:56:48.399Z,39.59
2023-03-28T15:59:30.398Z,39.61
2023-03-28T16:02:22.724Z,39.94
2023-03-28T16:05:16.533Z,39.94
2023-03-28T16:07:50.518Z,39.63
2023-03-28T16:10:22.459Z,38.99
2023-03-28T16:12:59.943Z,40.32
2023-03-28T16:15:40.462Z,40.29
2023-03-28T16:18:12.099Z,40.51
2023-03-28T16:20:45.313Z,40.13
2023-03-28T16:23:15.760Z,39.80
2023-03-28T16:25:45.809Z,40.02
2023-03-28T16:28:19.406Z,41.31
2023-03-28T16:30:49.292Z,40.36
2023-03-28T16:33:19.696Z,40.70
2023-03-28T16:35:49.621Z,41.20
2023-03-28T16:38:19.217Z,41.17
2023-03-28T16:40:48.826Z,41.41
2023-03-28T16:43:18.737Z,41.07
2023-03-28T16:45:52.076Z,41.31
2023-03-28T16:48:21.996Z,41.35
2023-03-28T16:50:59.697Z,41.25
2023-03-28T16:53:29.486Z,41.55
2023-03-28T16:55:59.781Z,41.17
2023-03-28T16:58:29.923Z,42.14
2023-03-28T17:01:05.910Z,41.74
2023-03-28T17:03:36.646Z,41.52
2023-03-28T17:06:09.932Z,42.22
2023-03-28T17:08:40.264Z,42.22
2023-03-28T17:11:12.664Z,42.26
2023-03-28T17:13:43.415Z,41.99
2023-03-28T17:16:13.221Z,41.99
2023-03-28T17:18:43.130Z,42.43
2023-03-28T17:21:14.978Z,42.78
2023-03-28T17:23:47.125Z,43.05
2023-03-28T17:26:17.780Z,44.38
2023-03-28T17:28:47.625Z,44.38
2023-03-28T17:31:20.483Z,44.46
2023-03-28T17:33:50.212Z,45.55
2023-03-28T17:36:28.007Z,48.30
2023-03-28T17:39:00.027Z,48.30
2023-03-28T17:41:30.852Z,50.22
2023-03-28T17:44:00.825Z,52.35
2023-03-28T17:46:30.665Z,53.79
2023-03-28T17:49:00.650Z,54.69
2023-03-28T17:51:30.817Z,55.19
2023-03-28T17:54:00.925Z,56.19
2023-03-28T17:56:31.067Z,57.43
2023-03-28T17:59:01.245Z,57.24
2023-03-28T18:01:31.109Z,57.03
2023-03-28T18:04:01.277Z,56.59
2023-03-28T18:06:49.196Z,57.75
2023-03-28T18:09:19.009Z,57.75
2023-03-28T18:11:49.476Z,58.49
2023-03-28T18:14:19.078Z,57.69
2023-03-28T18:16:49.107Z,58.07
2023-03-28T18:19:19.017Z,58.07
2023-03-28T18:21:49.313Z,58.13
2023-03-28T18:24:20.397Z,58.15
2023-03-28T18:26:50.294Z,58.72
2023-03-28T18:29:20.181Z,59.66
2023-03-28T18:31:50.286Z,60.06
2023-03-28T18:34:20.547Z,60.03
2023-03-28T18:36:51.381Z,60.85
2023-03-28T18:39:23.020Z,61.64
2023-03-28T18:41:52.948Z,61.71
2023-03-28T18:44:22.746Z,61.46
2023-03-28T18:46:54.467Z,62.82
2023-03-28T18:49:25.096Z,63.60
2023-03-28T18:51:55.294Z,64.32
2023-03-28T18:54:24.825Z,64.32
2023-03-28T18:56:54.384Z,65.07
2023-03-28T18:59:24.156Z,66.51
2023-03-28T19:01:54.906Z,66.02
2023-03-28T19:04:26.382Z,67.91
2023-03-28T19:06:56.557Z,67.94
2023-03-28T19:09:26.753Z,68.28
2023-03-28T19:11:56.554Z,68.63
2023-03-28T19:14:26.764Z,69.23
2023-03-28T19:16:56.916Z,70.70
2023-03-28T19:19:27.140Z,71.22
2023-03-28T19:21:57.401Z,71.55
2023-03-28T19:24:27.269Z,71.71
2023-03-28T19:26:58.915Z,71.77
2023-03-28T19:29:29.010Z,71.91
2023-03-28T19:31:58.899Z,71.90
2023-03-28T19:34:31.697Z,72.30
2023-03-28T19:37:01.773Z,72.30
2023-03-28T19:39:31.931Z,72.81
2023-03-28T19:42:01.749Z,73.68
2023-03-28T19:44:33.033Z,73.22
2023-03-28T19:47:06.835Z,73.74
2023-03-28T19:49:38.038Z,73.42
2023-03-28T19:52:09.975Z,74.09
2023-03-28T19:54:39.771Z,74.38
2023-03-28T19:57:09.600Z,73.97
2023-03-28T19:59:39.454Z,73.34
2023-03-28T20:02:11.950Z,74.49
2023-03-28T20:04:41.828Z,75.11
2023-03-28T20:07:12.613Z,75.33
2023-03-28T20:09:44.363Z,74.37
2023-03-28T20:12:14.194Z,74.67
2023-03-28T20:14:44.282Z,74.67
2023-03-28T20:17:14.286Z,75.08
2023-03-28T20:19:44.227Z,75.66
2023-03-28T20:22:14.494Z,75.30
2023-03-28T20:24:44.776Z,75.23
2023-03-28T20:27:16.242Z,74.19
2023-03-28T20:29:46.840Z,75.49
2023-03-28T20:32:17.492Z,75.57
2023-03-28T20:34:47.640Z,75.71
2023-03-28T20:37:18.106Z,75.59
2023-03-28T20:39:48.886Z,75.23
2023-03-28T20:42:19.485Z,74.35
2023-03-28T20:44:49.884Z,74.07
2023-03-28T20:47:21.438Z,74.34
2023-03-28T20:49:52.952Z,75.16
2023-03-28T20:52:22.672Z,74.46
2023-03-28T20:54:52.542Z,74.04
2023-03-28T20:57:24.360Z,73.78
2023-03-28T20:59:55.243Z,74.52
2023-03-28T21:02:26.295Z,73.94
2023-03-28T21:04:56.184Z,74.45
2023-03-28T21:07:26.659Z,74.82
2023-03-28T21:09:57.918Z,74.74
2023-03-28T21:12:28.580Z,74.49
2023-03-28T21:14:58.211Z,73.89
2023-03-28T21:17:29.133Z,74.16
2023-03-28T21:19:59.302Z,74.83
2023-03-28T21:22:29.375Z,74.39
2023-03-28T21:24:59.482Z,73.77
2023-03-28T21:27:29.421Z,73.96
2023-03-28T21:30:00.922Z,73.96
2023-03-28T21:32:33.108Z,74.07
2023-03-28T21:35:04.000Z,74.95
2023-03-28T21:37:33.959Z,75.28
2023-03-28T21:40:06.755Z,75.87
2023-03-28T21:42:36.556Z,75.87
2023-03-28T21:45:08.206Z,75.94
2023-03-28T21:47:38.793Z,75.92
2023-03-28T21:50:11.895Z,75.53
2023-03-28T21:52:41.916Z,76.34
2023-03-28T21:55:11.550Z,76.34
2023-03-28T21:57:41.466Z,75.82
2023-03-28T22:00:17.600Z,75.68
2023-03-28T22:02:47.286Z,75.78
2023-03-28T22:05:28.708Z,75.59
2023-03-28T22:07:50.301Z,75.98
2023-03-28T22:10:21.297Z,75.30
2023-03-28T22:12:52.770Z,75.85
2023-03-28T22:15:22.665Z,76.33
2023-03-28T22:17:54.874Z,76.03
2023-03-28T22:20:27.014Z,77.14
2023-03-28T22:22:58.550Z,76.98
2023-03-28T22:25:30.043Z,76.27
2023-03-28T22:27:59.818Z,75.46
2023-03-28T22:30:29.722Z,75.87
2023-03-28T22:32:59.611Z,75.90
2023-03-28T22:35:29.769Z,75.90
2023-03-28T22:38:00.386Z,76.81
2023-03-28T22:40:30.677Z,76.35
2023-03-28T22:43:01.369Z,75.79
2023-03-28T22:45:31.718Z,75.68
2023-03-28T22:48:03.316Z,75.89
2023-03-28T22:50:33.786Z,76.50
2023-03-28T22:53:04.471Z,76.11
2023-03-28T22:55:34.312Z,76.63
2023-03-28T22:58:06.382Z,76.76
2023-03-28T23:00:36.404Z,76.53
2023-03-28T23:03:08.095Z,76.52
2023-03-28T23:05:38.972Z,76.83
2023-03-28T23:08:11.693Z,76.41
2023-03-28T23:10:41.867Z,77.16
2023-03-28T23:13:11.742Z,77.16
2023-03-28T23:15:41.604Z,76.82
2023-03-28T23:18:12.055Z,76.39
2023-03-28T23:20:42.726Z,76.23
2023-03-28T23:23:14.219Z,75.37
2023-03-28T23:25:45.608Z,75.37
2023-03-28T23:28:17.244Z,75.71
2023-03-28T23:30:47.310Z,76.21
2023-03-28T23:33:18.321Z,76.54
2023-03-28T23:35:48.570Z,76.31
2023-03-28T23:38:18.167Z,76.45
2023-03-28T23:40:48.471Z,75.98
2023-03-28T23:43:18.569Z,76.21
2023-03-28T23:45:48.392Z,76.62
2023-03-28T23:48:18.050Z,76.24
2023-03-28T23:50:47.851Z,75.79
2023-03-28T23:53:17.657Z,75.96
2023-03-28T23:55:47.531Z,76.24
2023-03-28T23:58:17.173Z,75.74
